Obernburg, New York
Current Conditions -  °F | °C
As of 5:15 AM on Friday 19 Dec 2014 (Local Time) from KMSV Reporting Station
Overcast Overcast  
Wind Chill: 15°   Ceiling: 1900
Heat Index: 27°   Visibility: 10mi
Dew Point: 21°   Wind: 15mph
Humidity: 80%   Direction: 300°WNW
Pressure: 29.94"   Gusts: 25mph
Location:  41.84°N, 75.01°W
Report Text: KMSV 191015Z AUTO 30013G22KT 10SM OVC019 M03/M06 A2994 RMK AO1
Loading
Personal Weather Stations






























Interactive Weather Map New forecast layout! Learn more

10-Day Weather Forecast

Advertisements
Track Severe Weather on mobile